ěÝzenÝ letovÚho provozu ╚eskÚ republiky
Letiste: LKTB Aktualizace: 24.09.2020 17:05:23  UTC
 METAR LKTB 24.09. 17:00 ...
METAR LKTB 241700Z 14006KT CAVOK 20/14 Q1008 NOSIG RMK REG QNH 1004=
 TAF LKTB 24.09. 17:00 ...
TAF LKTB 241700Z 2418/2600 15008KT 9999 SCT040      BECMG 2422/2500 16011G24KT      BECMG 2505/2507 9000 -RA BKN030      TEMPO 2508/2600 6000 RA BKN020      PROB30 TEMPO 2514/2518 TSRA SCT025CB      BECMG 2515/2517 03008KT=